Time;durP1;ratioP1;P1;durP2;ratioP2;P2;SDS_P1;SDS_P2;PMS_P1;PMS_P2;Temp;Humidity;BMP_temperature;BMP_pressure;BME280_temperature;BME280_humidity;BME280_pressure;Samples;Min_cycle;Max_cycle;Signal;HPM_P1;HPM_P2
2022/03/02 00:00:56;;;;;;;13.30;9.82;;;;;;;;;;5101327;28;20074;-71
2022/03/02 00:03:21;;;;;;;15.13;11.88;;;;;;;;;;5091802;28;20024;-71
2022/03/02 00:05:47;;;;;;;46.53;31.17;;;;;;;;;;5092667;28;20024;-71
2022/03/02 00:08:12;;;;;;;24.70;17.80;;;;;;;;;;5097106;28;20047;-75
2022/03/02 00:10:37;;;;;;;45.53;30.63;;;;;;;;;;5094932;28;20076;-72
2022/03/02 00:13:03;;;;;;;53.60;37.00;;;;;;;;;;5093645;28;20051;-71
2022/03/02 00:15:28;;;;;;;71.53;48.20;;;;;;;;;;5096091;28;20027;-75
2022/03/02 00:17:53;;;;;;;30.63;22.38;;;;;;;;;;5096069;28;20077;-71
2022/03/02 00:20:19;;;;;;;19.38;14.55;;;;;;;;;;5102041;28;20020;-71
2022/03/02 00:22:44;;;;;;;47.47;34.33;;;;;;;;;;5100467;28;20034;-71
2022/03/02 00:25:10;;;;;;;24.60;16.90;;;;;;;;;;5098221;28;20023;-72
2022/03/02 00:27:36;;;;;;;20.85;16.27;;;;;;;;;;5091989;28;20023;-72
2022/03/02 00:30:02;;;;;;;13.43;10.38;;;;;;;;;;5101359;28;20111;-73
2022/03/02 00:32:28;;;;;;;39.17;32.78;;;;;;;;;;5098248;28;20113;-76
2022/03/02 00:34:53;;;;;;;20.90;16.88;;;;;;;;;;5097101;28;20024;-75
2022/03/02 00:37:19;;;;;;;18.48;14.45;;;;;;;;;;5081321;28;20019;-72
2022/03/02 00:39:44;;;;;;;12.55;9.68;;;;;;;;;;5081437;28;20045;-72
2022/03/02 00:42:10;;;;;;;12.52;10.18;;;;;;;;;;5093612;28;20023;-71
2022/03/02 00:44:36;;;;;;;15.07;10.55;;;;;;;;;;5100354;28;20408;-73
2022/03/02 00:47:02;;;;;;;13.38;10.68;;;;;;;;;;5101146;28;20035;-72
2022/03/02 00:49:28;;;;;;;23.00;17.50;;;;;;;;;;5090339;28;20023;-72
2022/03/02 00:51:56;;;;;;;36.00;26.35;;;;;;;;;;5098176;28;20028;-73
2022/03/02 00:54:22;;;;;;;41.50;32.35;;;;;;;;;;5098170;28;20354;-71
2022/03/02 00:56:47;;;;;;;32.15;24.15;;;;;;;;;;5099155;28;20106;-74
2022/03/02 00:59:13;;;;;;;31.88;22.63;;;;;;;;;;5097501;28;20051;-74
2022/03/02 01:01:38;;;;;;;35.08;27.17;;;;;;;;;;5097306;28;20035;-73
2022/03/02 01:04:03;;;;;;;17.38;13.57;;;;;;;;;;5098945;28;20099;-72
2022/03/02 01:06:29;;;;;;;16.85;13.00;;;;;;;;;;5097070;28;20027;-72
2022/03/02 01:08:54;;;;;;;17.30;13.73;;;;;;;;;;5091423;28;20439;-71
2022/03/02 01:11:20;;;;;;;16.23;12.25;;;;;;;;;;5095405;28;20027;-71
2022/03/02 01:13:46;;;;;;;16.92;12.68;;;;;;;;;;5091526;28;20039;-73
2022/03/02 01:16:12;;;;;;;14.73;11.18;;;;;;;;;;5096005;28;20027;-74
2022/03/02 01:18:38;;;;;;;15.25;11.60;;;;;;;;;;5099668;28;20023;-72
2022/03/02 01:21:03;;;;;;;17.42;12.98;;;;;;;;;;5073455;28;20130;-72
2022/03/02 01:23:29;;;;;;;17.90;13.02;;;;;;;;;;5095675;28;20035;-72
2022/03/02 01:25:54;;;;;;;16.23;12.32;;;;;;;;;;5096204;28;20103;-72
2022/03/02 01:28:20;;;;;;;19.45;14.25;;;;;;;;;;5097648;28;20045;-71
2022/03/02 01:30:45;;;;;;;19.98;13.57;;;;;;;;;;5091235;28;20015;-72
2022/03/02 01:33:10;;;;;;;18.20;13.80;;;;;;;;;;5096047;28;20042;-72
2022/03/02 01:35:36;;;;;;;19.15;13.70;;;;;;;;;;5097019;28;20019;-72
2022/03/02 01:38:01;;;;;;;18.95;13.50;;;;;;;;;;5093143;28;20533;-74
2022/03/02 01:40:27;;;;;;;17.42;13.27;;;;;;;;;;5092112;28;20032;-75
2022/03/02 01:42:52;;;;;;;30.40;20.38;;;;;;;;;;5100934;28;20393;-72
2022/03/02 01:45:18;;;;;;;31.10;19.10;;;;;;;;;;5099434;28;20343;-76
2022/03/02 01:47:43;;;;;;;55.55;33.38;;;;;;;;;;5096257;28;20022;-71
2022/03/02 01:50:10;;;;;;;60.17;33.63;;;;;;;;;;5086716;28;20042;-72
2022/03/02 01:52:35;;;;;;;32.67;18.98;;;;;;;;;;5099244;28;20027;-73
2022/03/02 01:55:01;;;;;;;21.85;15.30;;;;;;;;;;5089771;28;20031;-71
2022/03/02 01:57:27;;;;;;;24.33;15.32;;;;;;;;;;5097731;28;20976;-74
2022/03/02 01:59:52;;;;;;;22.77;15.98;;;;;;;;;;5098274;28;20032;-71
2022/03/02 02:02:17;;;;;;;25.30;16.90;;;;;;;;;;5099854;28;20042;-72
2022/03/02 02:04:43;;;;;;;26.70;17.15;;;;;;;;;;5097222;28;20028;-72
2022/03/02 02:07:08;;;;;;;25.48;17.13;;;;;;;;;;5097630;28;20065;-72
2022/03/02 02:09:34;;;;;;;28.50;18.60;;;;;;;;;;5099654;28;20035;-72
2022/03/02 02:11:59;;;;;;;28.58;19.67;;;;;;;;;;5050991;28;1273334;-74
2022/03/02 02:14:25;;;;;;;40.40;25.65;;;;;;;;;;5099387;28;20047;-73
2022/03/02 02:16:51;;;;;;;39.80;26.00;;;;;;;;;;5071620;28;20028;-74
2022/03/02 02:19:16;;;;;;;41.20;25.08;;;;;;;;;;5090941;28;20493;-73
2022/03/02 02:21:41;;;;;;;27.73;19.20;;;;;;;;;;5093781;28;20034;-73
2022/03/02 02:24:07;;;;;;;26.83;18.70;;;;;;;;;;5098074;28;20023;-71
2022/03/02 02:26:33;;;;;;;27.23;19.20;;;;;;;;;;5097624;28;20161;-71
2022/03/02 02:28:58;;;;;;;29.27;21.42;;;;;;;;;;5096728;28;20016;-73
2022/03/02 02:31:24;;;;;;;34.17;23.83;;;;;;;;;;5098268;28;20028;-71
2022/03/02 02:33:51;;;;;;;25.20;17.42;;;;;;;;;;5097551;28;20019;-72
2022/03/02 02:36:16;;;;;;;23.40;15.88;;;;;;;;;;5090753;28;20019;-72
2022/03/02 02:38:41;;;;;;;26.35;18.38;;;;;;;;;;5097992;28;20368;-72
2022/03/02 02:41:07;;;;;;;27.55;19.48;;;;;;;;;;5095358;28;20469;-71
2022/03/02 02:43:32;;;;;;;27.08;20.67;;;;;;;;;;5087838;28;20021;-71
2022/03/02 02:45:58;;;;;;;32.63;20.80;;;;;;;;;;5086111;28;20110;-71
2022/03/02 02:48:23;;;;;;;30.42;22.67;;;;;;;;;;5086879;28;20036;-74
2022/03/02 02:50:49;;;;;;;25.08;18.52;;;;;;;;;;5083465;28;20024;-72
2022/03/02 02:53:15;;;;;;;46.03;29.17;;;;;;;;;;5092337;28;20027;-74
2022/03/02 02:55:41;;;;;;;51.92;32.10;;;;;;;;;;5097853;28;20031;-75
2022/03/02 02:58:07;;;;;;;41.38;25.52;;;;;;;;;;5097636;28;20031;-71
2022/03/02 03:00:34;;;;;;;33.42;21.42;;;;;;;;;;5097299;28;20019;-74
2022/03/02 03:03:00;;;;;;;31.95;20.48;;;;;;;;;;5088603;28;20027;-74
2022/03/02 03:05:26;;;;;;;35.67;22.77;;;;;;;;;;5097585;28;20019;-73
2022/03/02 03:07:53;;;;;;;29.67;20.42;;;;;;;;;;5094941;28;20019;-71
2022/03/02 03:10:19;;;;;;;33.03;21.80;;;;;;;;;;5098784;28;20036;-72
2022/03/02 03:12:46;;;;;;;39.85;25.02;;;;;;;;;;5098807;28;20058;-72
2022/03/02 03:15:12;;;;;;;43.20;26.88;;;;;;;;;;5099163;28;21079;-72
2022/03/02 03:17:38;;;;;;;60.65;36.47;;;;;;;;;;5101086;28;20028;-71
2022/03/02 03:20:05;;;;;;;54.05;33.40;;;;;;;;;;5102668;28;20034;-72
2022/03/02 03:22:30;;;;;;;47.53;29.58;;;;;;;;;;5099878;28;20034;-73
2022/03/02 03:24:56;;;;;;;39.08;25.83;;;;;;;;;;5101594;28;20573;-72
2022/03/02 03:27:21;;;;;;;47.65;30.98;;;;;;;;;;5100628;28;20028;-71
2022/03/02 03:29:46;;;;;;;41.65;26.20;;;;;;;;;;5100940;28;20063;-72
2022/03/02 03:32:12;;;;;;;37.45;24.52;;;;;;;;;;5101506;28;20032;-71
2022/03/02 03:34:37;;;;;;;41.15;26.13;;;;;;;;;;5100842;28;20034;-71
2022/03/02 03:37:03;;;;;;;37.50;23.80;;;;;;;;;;5100000;28;20015;-76
2022/03/02 03:39:29;;;;;;;38.97;23.30;;;;;;;;;;5102931;28;20114;-76
2022/03/02 03:41:55;;;;;;;40.85;24.85;;;;;;;;;;5100846;28;20554;-75
2022/03/02 03:44:21;;;;;;;56.45;31.20;;;;;;;;;;5101652;28;20458;-71
2022/03/02 03:46:46;;;;;;;51.05;30.17;;;;;;;;;;5102116;28;20019;-71
2022/03/02 03:49:12;;;;;;;53.22;30.17;;;;;;;;;;5101461;28;20034;-70
2022/03/02 03:51:37;;;;;;;63.10;34.85;;;;;;;;;;5102720;28;20077;-72
2022/03/02 03:54:02;;;;;;;44.80;26.38;;;;;;;;;;5099141;28;20469;-72
2022/03/02 03:56:30;;;;;;;46.95;30.00;;;;;;;;;;5102333;28;20421;-71
2022/03/02 03:58:55;;;;;;;56.95;32.97;;;;;;;;;;5099291;28;20059;-71
2022/03/02 04:01:21;;;;;;;47.75;29.48;;;;;;;;;;5100217;28;20077;-71
2022/03/02 04:03:46;;;;;;;41.05;25.98;;;;;;;;;;5101096;28;20034;-71
2022/03/02 04:06:12;;;;;;;40.25;24.48;;;;;;;;;;5079680;28;20476;-71
2022/03/02 04:08:37;;;;;;;48.15;30.30;;;;;;;;;;5100257;28;20024;-70
2022/03/02 04:11:03;;;;;;;44.60;26.90;;;;;;;;;;5092242;28;20347;-71
2022/03/02 04:13:29;;;;;;;42.55;26.38;;;;;;;;;;5098386;28;20055;-76
2022/03/02 04:15:55;;;;;;;42.95;25.77;;;;;;;;;;5100179;28;20027;-75
2022/03/02 04:18:20;;;;;;;42.35;27.33;;;;;;;;;;5098527;28;20031;-72
2022/03/02 04:20:45;;;;;;;41.08;25.65;;;;;;;;;;5098956;28;20020;-72
2022/03/02 04:23:11;;;;;;;37.33;24.83;;;;;;;;;;5088840;28;20035;-71
2022/03/02 04:25:36;;;;;;;36.78;23.45;;;;;;;;;;5096540;28;20076;-73
2022/03/02 04:28:02;;;;;;;39.28;24.83;;;;;;;;;;5094372;28;20027;-71
2022/03/02 04:30:30;;;;;;;38.63;24.83;;;;;;;;;;5098724;28;20434;-75
2022/03/02 04:32:55;;;;;;;42.25;26.55;;;;;;;;;;5100329;28;20051;-70
2022/03/02 04:35:21;;;;;;;47.00;29.35;;;;;;;;;;5081758;28;20491;-72
2022/03/02 04:37:46;;;;;;;43.17;26.98;;;;;;;;;;5099026;28;20552;-71
2022/03/02 04:40:13;;;;;;;43.20;25.95;;;;;;;;;;5100404;28;20042;-71
2022/03/02 04:42:38;;;;;;;38.90;24.83;;;;;;;;;;5100995;28;20091;-73
2022/03/02 04:45:04;;;;;;;40.20;26.02;;;;;;;;;;5093642;28;20091;-74
2022/03/02 04:47:30;;;;;;;38.70;23.85;;;;;;;;;;5091908;28;21009;-72
2022/03/02 04:49:56;;;;;;;40.25;24.75;;;;;;;;;;5087819;28;20023;-71
2022/03/02 04:52:21;;;;;;;40.50;24.65;;;;;;;;;;5093278;28;20409;-71
2022/03/02 04:57:31;;;;;;;43.40;26.73;;;;;;;;;;5089903;28;20030;-72
2022/03/02 04:59:56;;;;;;;77.00;45.33;;;;;;;;;;5096031;28;20023;-73
2022/03/02 05:02:22;;;;;;;127.53;70.05;;;;;;;;;;5088377;28;20035;-75
2022/03/02 05:04:49;;;;;;;91.10;49.97;;;;;;;;;;5094983;28;20492;-72
2022/03/02 05:07:15;;;;;;;58.65;33.47;;;;;;;;;;5086762;28;20034;-71
2022/03/02 05:09:40;;;;;;;47.42;29.33;;;;;;;;;;5085838;28;20347;-72
2022/03/02 05:12:06;;;;;;;46.15;28.60;;;;;;;;;;5087048;28;20103;-74
2022/03/02 05:14:31;;;;;;;51.10;30.02;;;;;;;;;;5086831;28;20019;-72
2022/03/02 05:16:57;;;;;;;68.20;38.38;;;;;;;;;;5092225;28;20349;-73
2022/03/02 05:19:22;;;;;;;80.32;41.78;;;;;;;;;;5086756;27;20577;-72
2022/03/02 05:21:50;;;;;;;78.78;42.10;;;;;;;;;;5098820;28;20039;-73
2022/03/02 05:24:16;;;;;;;80.22;42.97;;;;;;;;;;5096558;28;20027;-75
2022/03/02 05:26:41;;;;;;;75.07;40.28;;;;;;;;;;5095704;28;20038;-70
2022/03/02 05:29:07;;;;;;;66.70;38.65;;;;;;;;;;5091663;28;20091;-70
2022/03/02 05:31:33;;;;;;;530.30;300.33;;;;;;;;;;5090889;28;20936;-70
2022/03/02 05:33:58;;;;;;;509.52;276.90;;;;;;;;;;5089305;28;20480;-67
2022/03/02 05:36:24;;;;;;;423.27;236.85;;;;;;;;;;5098476;28;20453;-67
2022/03/02 05:38:49;;;;;;;114.07;60.25;;;;;;;;;;5098520;28;20106;-70
2022/03/02 05:41:15;;;;;;;77.70;46.17;;;;;;;;;;5094612;28;20338;-73
2022/03/02 05:43:40;;;;;;;103.20;65.85;;;;;;;;;;5087282;28;20327;-68
2022/03/02 05:46:05;;;;;;;116.28;74.53;;;;;;;;;;5094969;28;20023;-68
2022/03/02 05:48:31;;;;;;;116.72;73.15;;;;;;;;;;5096432;28;20051;-73
2022/03/02 05:50:56;;;;;;;98.82;58.80;;;;;;;;;;5095342;28;20439;-69
2022/03/02 05:53:21;;;;;;;73.80;46.00;;;;;;;;;;5096177;28;20036;-70
2022/03/02 05:55:47;;;;;;;71.13;44.15;;;;;;;;;;5098296;28;20035;-67
2022/03/02 05:58:12;;;;;;;68.78;42.42;;;;;;;;;;5097975;28;20038;-70
2022/03/02 06:00:38;;;;;;;82.65;47.08;;;;;;;;;;5098134;28;20036;-70
2022/03/02 06:03:03;;;;;;;78.82;47.17;;;;;;;;;;5098173;28;20631;-72
2022/03/02 06:05:28;;;;;;;63.47;37.60;;;;;;;;;;5100531;28;20433;-71
2022/03/02 06:07:54;;;;;;;61.00;37.47;;;;;;;;;;5099045;28;20027;-73
2022/03/02 06:10:19;;;;;;;60.42;36.72;;;;;;;;;;5098730;28;21234;-70
2022/03/02 06:12:45;;;;;;;57.90;37.28;;;;;;;;;;5096102;28;20064;-72
2022/03/02 06:15:12;;;;;;;71.35;40.50;;;;;;;;;;5087021;28;20354;-69
2022/03/02 06:17:37;;;;;;;71.10;45.03;;;;;;;;;;5098734;28;20030;-68
2022/03/02 06:20:03;;;;;;;84.10;56.40;;;;;;;;;;5089481;28;20024;-72
2022/03/02 06:22:28;;;;;;;123.78;68.93;;;;;;;;;;5099080;28;20077;-68
2022/03/02 06:24:54;;;;;;;73.22;43.47;;;;;;;;;;5084264;28;21003;-71
2022/03/02 06:27:21;;;;;;;67.03;41.08;;;;;;;;;;5095846;28;20019;-70
2022/03/02 06:29:47;;;;;;;61.88;38.95;;;;;;;;;;5093468;28;20491;-69
2022/03/02 06:32:12;;;;;;;56.67;37.55;;;;;;;;;;5093495;28;20035;-68
2022/03/02 06:34:38;;;;;;;55.35;33.80;;;;;;;;;;5098831;28;20035;-73
2022/03/02 06:37:05;;;;;;;50.13;32.50;;;;;;;;;;5098884;28;20358;-75
2022/03/02 06:39:30;;;;;;;55.30;33.60;;;;;;;;;;5101507;28;20066;-70
2022/03/02 06:41:55;;;;;;;59.38;36.88;;;;;;;;;;5097810;28;20093;-72
2022/03/02 06:44:21;;;;;;;69.47;41.42;;;;;;;;;;5100139;28;20035;-72
2022/03/02 06:46:52;;;;;;;78.88;48.47;;;;;;;;;;5102031;28;20026;-71
2022/03/02 06:49:18;;;;;;;73.43;45.25;;;;;;;;;;5102031;28;20334;-68
2022/03/02 06:51:46;;;;;;;82.15;47.58;;;;;;;;;;5092192;28;20012;-72
2022/03/02 06:54:12;;;;;;;77.55;46.15;;;;;;;;;;5101641;28;20120;-73
2022/03/02 06:56:49;;;;;;;72.80;42.47;;;;;;;;;;5100010;28;20027;-74
2022/03/02 06:59:19;;;;;;;59.08;34.78;;;;;;;;;;5100097;28;20119;-74
2022/03/02 07:01:48;;;;;;;79.20;42.70;;;;;;;;;;5097506;28;20026;-74
2022/03/02 07:04:14;;;;;;;52.38;32.55;;;;;;;;;;5102109;28;20470;-75
2022/03/02 07:06:40;;;;;;;67.85;40.47;;;;;;;;;;5099173;28;20072;-73
2022/03/02 07:09:07;;;;;;;74.13;41.13;;;;;;;;;;5103765;28;20330;-74
2022/03/02 07:11:33;;;;;;;61.13;36.05;;;;;;;;;;5102225;28;20023;-75
2022/03/02 07:13:59;;;;;;;69.78;39.88;;;;;;;;;;5100078;28;20048;-75
2022/03/02 07:16:24;;;;;;;57.60;33.72;;;;;;;;;;5100416;28;20427;-75
2022/03/02 07:18:51;;;;;;;44.30;26.30;;;;;;;;;;5098456;28;20020;-74
2022/03/02 07:21:16;;;;;;;49.05;30.10;;;;;;;;;;5098085;28;20152;-72
2022/03/02 07:23:52;;;;;;;46.72;27.80;;;;;;;;;;5091360;28;20061;-66
2022/03/02 07:26:17;;;;;;;45.45;27.25;;;;;;;;;;5102003;28;20029;-71
2022/03/02 07:28:47;;;;;;;38.78;24.80;;;;;;;;;;5099726;28;20030;-71
2022/03/02 07:31:12;;;;;;;50.05;32.10;;;;;;;;;;5102894;28;20035;-71
2022/03/02 07:33:39;;;;;;;65.70;36.65;;;;;;;;;;5099198;28;20040;-75
2022/03/02 07:36:05;;;;;;;61.75;35.78;;;;;;;;;;5101150;28;20423;-72
2022/03/02 07:38:31;;;;;;;54.65;30.38;;;;;;;;;;5099312;28;20027;-72
2022/03/02 07:40:56;;;;;;;51.05;31.15;;;;;;;;;;5098657;28;20030;-72
2022/03/02 07:43:22;;;;;;;40.60;27.25;;;;;;;;;;5097723;28;20040;-69
2022/03/02 07:45:48;;;;;;;33.67;22.45;;;;;;;;;;5099804;28;20434;-70
2022/03/02 07:48:14;;;;;;;45.88;30.65;;;;;;;;;;5098675;28;20116;-72
2022/03/02 07:50:42;;;;;;;38.65;24.95;;;;;;;;;;5094597;28;20031;-71
2022/03/02 07:53:08;;;;;;;37.35;22.90;;;;;;;;;;5070466;28;20042;-71
2022/03/02 07:55:34;;;;;;;40.38;25.80;;;;;;;;;;5066890;28;20023;-73
2022/03/02 07:58:02;;;;;;;42.83;27.23;;;;;;;;;;5087030;28;20019;-71
2022/03/02 08:00:28;;;;;;;38.13;27.90;;;;;;;;;;5090293;28;20110;-72
2022/03/02 08:02:56;;;;;;;47.78;29.27;;;;;;;;;;5087534;28;20111;-74
2022/03/02 08:05:21;;;;;;;37.50;23.63;;;;;;;;;;5086132;28;20031;-73
2022/03/02 08:07:48;;;;;;;44.35;28.55;;;;;;;;;;5089616;28;20024;-74
2022/03/02 08:10:15;;;;;;;51.20;32.65;;;;;;;;;;5091469;28;20438;-69
2022/03/02 08:12:41;;;;;;;43.97;27.55;;;;;;;;;;5087158;28;20079;-67
2022/03/02 08:15:07;;;;;;;38.05;24.30;;;;;;;;;;5089813;28;20371;-67
2022/03/02 08:17:32;;;;;;;46.97;25.30;;;;;;;;;;5088113;28;20664;-70
2022/03/02 08:19:57;;;;;;;33.92;23.10;;;;;;;;;;5092546;28;20465;-66
2022/03/02 08:22:24;;;;;;;44.72;23.13;;;;;;;;;;5089350;28;20027;-68
2022/03/02 08:25:06;;;;;;;46.42;24.02;;;;;;;;;;5088400;28;20051;-71
2022/03/02 08:27:32;;;;;;;36.78;22.08;;;;;;;;;;5090710;28;20023;-71
2022/03/02 08:30:00;;;;;;;36.90;22.40;;;;;;;;;;5087511;28;20084;-70
2022/03/02 08:32:25;;;;;;;41.63;23.83;;;;;;;;;;5094193;28;20520;-69
2022/03/02 08:34:51;;;;;;;39.45;23.15;;;;;;;;;;5095834;28;20154;-72
2022/03/02 08:37:18;;;;;;;29.27;18.00;;;;;;;;;;5088064;28;20652;-73
2022/03/02 08:39:44;;;;;;;47.08;28.35;;;;;;;;;;5075635;28;20024;-68
2022/03/02 08:42:10;;;;;;;37.72;22.75;;;;;;;;;;5098441;28;20124;-69
2022/03/02 08:44:36;;;;;;;33.88;22.45;;;;;;;;;;5096194;28;20139;-72
2022/03/02 08:47:01;;;;;;;32.72;21.08;;;;;;;;;;5087343;28;20450;-68
2022/03/02 08:49:27;;;;;;;35.55;22.00;;;;;;;;;;5096595;28;20035;-67
2022/03/02 08:51:54;;;;;;;35.03;22.40;;;;;;;;;;5098249;28;20077;-73
2022/03/02 08:54:19;;;;;;;30.48;18.85;;;;;;;;;;5092906;28;20035;-71
2022/03/02 08:56:46;;;;;;;28.63;17.33;;;;;;;;;;5087065;28;20024;-72
2022/03/02 08:59:15;;;;;;;31.98;20.65;;;;;;;;;;5091920;28;20024;-70
2022/03/02 09:01:43;;;;;;;39.42;23.42;;;;;;;;;;5095053;28;20031;-69
2022/03/02 09:04:12;;;;;;;26.65;16.17;;;;;;;;;;5094296;28;20082;-69
2022/03/02 09:06:38;;;;;;;;;;;;;;;;;;5088836;28;20099;-69
2022/03/02 09:09:05;;;;;;;36.47;20.93;;;;;;;;;;5093251;28;20350;-70
2022/03/02 09:11:30;;;;;;;31.20;19.63;;;;;;;;;;5090967;28;20076;-69
2022/03/02 09:13:56;;;;;;;38.08;22.83;;;;;;;;;;5093649;28;20047;-71
2022/03/02 09:16:21;;;;;;;37.20;21.25;;;;;;;;;;5095268;28;20031;-69
2022/03/02 09:18:47;;;;;;;28.05;17.67;;;;;;;;;;5086303;28;20055;-69
2022/03/02 09:21:13;;;;;;;27.55;17.45;;;;;;;;;;5086879;28;20074;-68
2022/03/02 09:23:41;;;;;;;26.55;17.48;;;;;;;;;;5092882;28;20055;-72
2022/03/02 09:26:10;;;;;;;27.52;18.45;;;;;;;;;;5093585;28;20062;-69
2022/03/02 09:28:37;;;;;;;30.27;18.27;;;;;;;;;;5098702;28;20015;-74
2022/03/02 09:31:04;;;;;;;35.50;20.70;;;;;;;;;;5090505;27;20062;-68
2022/03/02 09:33:29;;;;;;;31.20;18.65;;;;;;;;;;5085791;28;20038;-67
2022/03/02 09:35:55;;;;;;;31.70;18.92;;;;;;;;;;5093096;28;20023;-71
2022/03/02 09:38:22;;;;;;;55.67;29.88;;;;;;;;;;5094317;28;20016;-74
2022/03/02 09:40:49;;;;;;;40.22;24.60;;;;;;;;;;5097427;28;20031;-71
2022/03/02 09:43:19;;;;;;;43.35;25.23;;;;;;;;;;5098663;28;20020;-67
2022/03/02 09:45:45;;;;;;;23.80;14.73;;;;;;;;;;5096497;28;20030;-72
2022/03/02 09:48:15;;;;;;;24.20;16.00;;;;;;;;;;5098571;28;20031;-67
2022/03/02 09:50:40;;;;;;;32.08;19.17;;;;;;;;;;5096592;28;20438;-70
2022/03/02 09:53:12;;;;;;;37.00;19.27;;;;;;;;;;5096220;28;20045;-70
2022/03/02 09:55:40;;;;;;;38.83;24.35;;;;;;;;;;5096347;28;20388;-73
2022/03/02 09:58:06;;;;;;;32.97;19.85;;;;;;;;;;5087655;28;20088;-74
2022/03/02 10:00:32;;;;;;;44.88;26.75;;;;;;;;;;5086223;28;20016;-68
2022/03/02 10:02:58;;;;;;;33.58;19.70;;;;;;;;;;5085398;28;20042;-69
2022/03/02 10:05:28;;;;;;;28.70;20.02;;;;;;;;;;5092157;28;20012;-67
2022/03/02 10:07:55;;;;;;;34.72;20.13;;;;;;;;;;5096076;28;20081;-69
2022/03/02 10:10:24;;;;;;;24.95;16.20;;;;;;;;;;5088778;28;20103;-67
2022/03/02 10:12:50;;;;;;;35.88;21.27;;;;;;;;;;5093648;28;21706;-68
2022/03/02 10:15:16;;;;;;;39.80;23.45;;;;;;;;;;5080924;28;20032;-73
2022/03/02 10:17:42;;;;;;;22.75;15.15;;;;;;;;;;5098774;28;20401;-70
2022/03/02 10:20:09;;;;;;;33.42;22.30;;;;;;;;;;5089636;28;20031;-68
2022/03/02 10:22:35;;;;;;;49.03;25.58;;;;;;;;;;5095922;28;20110;-68
2022/03/02 10:25:05;;;;;;;33.20;19.17;;;;;;;;;;5099793;28;20106;-68
2022/03/02 10:27:34;;;;;;;38.75;22.90;;;;;;;;;;5100819;28;20430;-69
2022/03/02 10:30:07;;;;;;;36.83;21.55;;;;;;;;;;5099271;28;20173;-69
2022/03/02 10:32:35;;;;;;;38.25;23.13;;;;;;;;;;5098473;28;20357;-72
2022/03/02 10:35:03;;;;;;;51.13;22.73;;;;;;;;;;5099504;28;20027;-81
2022/03/02 10:37:31;;;;;;;32.15;19.08;;;;;;;;;;5100627;28;20490;-73
2022/03/02 10:40:09;;;;;;;26.70;16.33;;;;;;;;;;5100731;28;20024;-73
2022/03/02 10:42:41;;;;;;;32.90;20.50;;;;;;;;;;5102083;28;20496;-73
2022/03/02 10:45:26;;;;;;;27.73;16.63;;;;;;;;;;5101267;28;20038;-74
2022/03/02 10:48:01;;;;;;;22.80;16.02;;;;;;;;;;5092472;28;20050;-75
2022/03/02 10:50:28;;;;;;;26.10;14.27;;;;;;;;;;5105026;28;20023;-71
2022/03/02 10:52:54;;;;;;;27.15;16.80;;;;;;;;;;5095717;28;20046;-73
2022/03/02 10:55:20;;;;;;;22.25;14.80;;;;;;;;;;5100841;28;20431;-72
2022/03/02 10:57:47;;;;;;;28.63;16.30;;;;;;;;;;5101569;28;20027;-73
2022/03/02 11:00:14;;;;;;;22.85;15.18;;;;;;;;;;5101509;28;20031;-72
2022/03/02 11:02:42;;;;;;;22.58;12.20;;;;;;;;;;5099026;28;20027;-72
2022/03/02 11:05:11;;;;;;;22.40;13.00;;;;;;;;;;5101191;28;20023;-72
2022/03/02 11:07:37;;;;;;;17.63;12.52;;;;;;;;;;5099835;28;20438;-73
2022/03/02 11:10:04;;;;;;;26.65;16.08;;;;;;;;;;5099906;28;20020;-72
2022/03/02 11:12:30;;;;;;;27.63;17.42;;;;;;;;;;5101009;28;20134;-73
2022/03/02 11:15:01;;;;;;;20.23;13.45;;;;;;;;;;5099362;28;20150;-72
2022/03/02 11:17:27;;;;;;;34.53;19.17;;;;;;;;;;5100263;28;20019;-72
2022/03/02 11:19:57;;;;;;;21.38;13.35;;;;;;;;;;5102256;28;20028;-72
2022/03/02 11:22:23;;;;;;;18.52;12.48;;;;;;;;;;5099164;28;20031;-73
2022/03/02 11:24:53;;;;;;;18.70;12.60;;;;;;;;;;5099650;28;20378;-72
2022/03/02 11:27:37;;;;;;;22.08;13.55;;;;;;;;;;5099468;28;20121;-72
2022/03/02 11:30:07;;;;;;;20.17;12.85;;;;;;;;;;5101234;28;20047;-72
2022/03/02 11:32:33;;;;;;;20.52;13.35;;;;;;;;;;5100423;28;20477;-72
2022/03/02 11:34:59;;;;;;;21.20;13.48;;;;;;;;;;5101992;28;20408;-73
2022/03/02 11:37:25;;;;;;;21.83;14.57;;;;;;;;;;5101117;28;20018;-73
2022/03/02 11:39:50;;;;;;;25.38;15.25;;;;;;;;;;5101957;28;20019;-73
2022/03/02 11:42:17;;;;;;;30.63;20.10;;;;;;;;;;5100611;28;20020;-73
2022/03/02 11:44:43;;;;;;;22.27;14.05;;;;;;;;;;5097534;28;20034;-72
2022/03/02 11:47:14;;;;;;;21.77;13.98;;;;;;;;;;5099471;28;20324;-72
2022/03/02 11:49:40;;;;;;;36.58;18.55;;;;;;;;;;5101025;28;20015;-74
2022/03/02 11:52:06;;;;;;;24.98;15.05;;;;;;;;;;5096548;28;20031;-72
2022/03/02 11:54:46;;;;;;;19.88;13.60;;;;;;;;;;5097747;28;20020;-72
2022/03/02 11:57:16;;;;;;;19.45;12.70;;;;;;;;;;5100747;28;20027;-72
2022/03/02 11:59:41;;;;;;;20.95;13.80;;;;;;;;;;5098262;28;20099;-72
2022/03/02 12:02:14;;;;;;;18.75;12.63;;;;;;;;;;5098862;28;20039;-72
2022/03/02 12:04:40;;;;;;;18.95;13.38;;;;;;;;;;5100084;28;20342;-72
2022/03/02 12:07:08;;;;;;;24.95;14.57;;;;;;;;;;5099402;28;20024;-72
2022/03/02 12:09:37;;;;;;;19.90;12.52;;;;;;;;;;5097959;28;20024;-72
2022/03/02 12:12:03;;;;;;;;;;;;;;;;;;5101217;28;20048;-71
2022/03/02 12:14:29;;;;;;;21.23;15.43;;;;;;;;;;5099424;28;19908;-72
2022/03/02 12:16:54;;;;;;;16.00;10.98;;;;;;;;;;5097719;28;20020;-72
2022/03/02 12:19:30;;;;;;;24.58;15.00;;;;;;;;;;5083332;28;20036;-72
2022/03/02 12:22:05;;;;;;;25.45;13.38;;;;;;;;;;5097853;28;20012;-73
2022/03/02 12:24:32;;;;;;;21.63;12.73;;;;;;;;;;5098280;28;20024;-72
2022/03/02 12:27:08;;;;;;;21.73;12.98;;;;;;;;;;5099748;28;20053;-72
2022/03/02 12:29:34;;;;;;;17.42;11.23;;;;;;;;;;5099972;28;20019;-71
2022/03/02 12:32:03;;;;;;;26.73;15.65;;;;;;;;;;5100004;28;20028;-71
2022/03/02 12:34:31;;;;;;;29.73;17.10;;;;;;;;;;5100037;28;20016;-72
2022/03/02 12:36:56;;;;;;;28.40;15.25;;;;;;;;;;5099354;28;20101;-72
2022/03/02 12:39:21;;;;;;;24.02;13.50;;;;;;;;;;5100511;28;20048;-73
2022/03/02 12:41:47;;;;;;;26.17;13.85;;;;;;;;;;5099226;28;20055;-71
2022/03/02 12:44:12;;;;;;;24.58;15.57;;;;;;;;;;5099305;28;20445;-75
2022/03/02 12:46:38;;;;;;;26.70;15.95;;;;;;;;;;5101852;28;20063;-74
2022/03/02 12:49:03;;;;;;;18.00;10.55;;;;;;;;;;5098910;28;20043;-71
2022/03/02 12:51:31;;;;;;;20.33;12.15;;;;;;;;;;5099581;28;20028;-71
2022/03/02 12:53:57;;;;;;;33.53;13.10;;;;;;;;;;5098723;28;20020;-73
2022/03/02 12:56:22;;;;;;;21.80;14.75;;;;;;;;;;5096380;28;20473;-73
2022/03/02 12:58:48;;;;;;;25.38;17.48;;;;;;;;;;5098745;28;21331;-75
2022/03/02 13:01:13;;;;;;;25.50;16.35;;;;;;;;;;5102042;28;20027;-72
2022/03/02 13:03:44;;;;;;;22.60;13.93;;;;;;;;;;5101247;28;20036;-73
2022/03/02 13:06:13;;;;;;;26.48;15.65;;;;;;;;;;5097554;28;20114;-74
2022/03/02 13:08:44;;;;;;;26.52;15.20;;;;;;;;;;5097122;28;20127;-73
2022/03/02 13:11:27;;;;;;;24.05;15.35;;;;;;;;;;5098895;28;20440;-74
2022/03/02 13:13:53;;;;;;;19.35;11.70;;;;;;;;;;5097113;28;20054;-74
2022/03/02 13:16:21;;;;;;;33.25;17.60;;;;;;;;;;5097209;28;20028;-71
2022/03/02 13:18:47;;;;;;;18.85;13.90;;;;;;;;;;5098104;28;20093;-74
2022/03/02 13:21:14;;;;;;;21.45;14.68;;;;;;;;;;5095025;28;20031;-75
2022/03/02 13:23:39;;;;;;;26.00;16.23;;;;;;;;;;5097080;28;20052;-73
2022/03/02 13:26:04;;;;;;;33.15;20.20;;;;;;;;;;5097742;28;20470;-71
2022/03/02 13:28:31;;;;;;;27.50;16.02;;;;;;;;;;5097646;28;20027;-73
2022/03/02 13:31:08;;;;;;;25.13;16.85;;;;;;;;;;5096746;28;20023;-75
2022/03/02 13:33:55;;;;;;;54.42;30.45;;;;;;;;;;5099390;28;20449;-72
2022/03/02 13:36:32;;;;;;;27.33;17.15;;;;;;;;;;5094747;28;20080;-72
2022/03/02 13:39:08;;;;;;;23.80;17.63;;;;;;;;;;5096467;28;20106;-72
2022/03/02 13:41:44;;;;;;;20.83;14.75;;;;;;;;;;5095579;28;20445;-72
2022/03/02 13:44:30;;;;;;;25.80;17.20;;;;;;;;;;5098327;28;20102;-71
2022/03/02 13:47:08;;;;;;;26.27;16.35;;;;;;;;;;5097403;28;20058;-73
2022/03/02 13:49:57;;;;;;;33.55;20.63;;;;;;;;;;5096982;28;20035;-72
2022/03/02 13:52:25;;;;;;;29.38;17.40;;;;;;;;;;5099457;28;20659;-71
2022/03/02 13:54:50;;;;;;;26.58;17.98;;;;;;;;;;5097341;28;20027;-72
2022/03/02 13:57:20;;;;;;;23.88;16.67;;;;;;;;;;5099081;28;20023;-72
2022/03/02 13:59:45;;;;;;;30.30;19.75;;;;;;;;;;5098595;28;20023;-74
2022/03/02 14:02:11;;;;;;;21.48;14.73;;;;;;;;;;5097027;28;20038;-73
2022/03/02 14:04:42;;;;;;;30.00;19.42;;;;;;;;;;5098748;28;20469;-72
2022/03/02 14:07:07;;;;;;;27.08;18.73;;;;;;;;;;5099150;28;20038;-71
2022/03/02 14:09:32;;;;;;;25.10;16.65;;;;;;;;;;5098182;28;20032;-74
2022/03/02 14:12:02;;;;;;;47.70;26.38;;;;;;;;;;5097843;28;20431;-73
2022/03/02 14:14:29;;;;;;;27.40;17.58;;;;;;;;;;5098077;28;20031;-73
2022/03/02 14:16:57;;;;;;;38.33;21.83;;;;;;;;;;5097478;28;20447;-72